Time;durP1;ratioP1;P1;durP2;ratioP2;P2;SDS_P1;SDS_P2;PMS_P1;PMS_P2;Temp;Humidity;BMP_temperature;BMP_pressure;BME280_temperature;BME280_humidity;BME280_pressure;Samples;Min_cycle;Max_cycle;Signal;HPM_P1;HPM_P2
2023/08/27 00:01:29;;;;;;;9.75;8.02;;;14.50;99.90;;;;;;5048417;28;20045;-72
2023/08/27 00:03:55;;;;;;;11.07;8.60;;;14.50;99.90;;;;;;5048025;28;20044;-72
2023/08/27 00:06:21;;;;;;;12.10;8.60;;;14.50;99.90;;;;;;5046342;28;20746;-73
2023/08/27 00:08:47;;;;;;;11.32;7.85;;;14.40;99.90;;;;;;5064764;28;20047;-73
2023/08/27 00:11:13;;;;;;;10.35;7.80;;;14.40;99.90;;;;;;5065056;28;20494;-73
2023/08/27 00:13:39;;;;;;;12.95;8.45;;;14.40;99.90;;;;;;5065292;28;20413;-73
2023/08/27 00:16:05;;;;;;;11.90;8.98;;;14.40;99.90;;;;;;5065411;28;20044;-72
2023/08/27 00:18:32;;;;;;;11.25;8.52;;;14.40;99.90;;;;;;5056971;28;20048;-72
2023/08/27 00:20:58;;;;;;;11.80;8.07;;;14.40;99.90;;;;;;5062403;28;20044;-73
2023/08/27 00:23:24;;;;;;;12.35;8.70;;;14.30;99.90;;;;;;5064713;28;20033;-74
2023/08/27 00:25:50;;;;;;;12.48;8.68;;;14.40;99.90;;;;;;5064351;28;20059;-73
2023/08/27 00:28:16;;;;;;;10.57;8.30;;;14.30;99.90;;;;;;5047784;28;20381;-72
2023/08/27 00:30:43;;;;;;;10.50;8.52;;;14.30;99.90;;;;;;5057692;28;20044;-73
2023/08/27 00:33:08;;;;;;;12.65;7.50;;;14.30;99.90;;;;;;5058642;28;20519;-72
2023/08/27 00:35:36;;;;;;;10.23;7.43;;;14.30;99.90;;;;;;5039289;28;20032;-72
2023/08/27 00:38:02;;;;;;;11.68;8.68;;;14.30;99.90;;;;;;5063196;28;20056;-72
2023/08/27 00:40:29;;;;;;;10.85;7.50;;;14.20;99.90;;;;;;5063502;28;20041;-72
2023/08/27 00:42:55;;;;;;;9.70;7.70;;;14.20;99.90;;;;;;5061068;28;20045;-72
2023/08/27 00:45:21;;;;;;;14.13;7.60;;;14.20;99.90;;;;;;5063867;28;20036;-72
2023/08/27 00:47:47;;;;;;;10.57;8.05;;;14.20;99.90;;;;;;5046060;28;20045;-73
2023/08/27 00:50:14;;;;;;;10.48;8.35;;;14.20;99.90;;;;;;5044524;28;20052;-72
2023/08/27 00:52:41;;;;;;;10.80;8.02;;;14.20;99.90;;;;;;5056047;28;20142;-72
2023/08/27 00:55:08;;;;;;;10.40;7.72;;;14.10;99.90;;;;;;5064566;28;20051;-72
2023/08/27 00:57:36;;;;;;;10.05;8.55;;;14.10;99.90;;;;;;5059756;28;20052;-72
2023/08/27 01:00:03;;;;;;;10.68;8.23;;;14.10;99.90;;;;;;5063677;28;20125;-72
2023/08/27 01:02:28;;;;;;;12.02;8.73;;;14.10;99.90;;;;;;5063761;28;20537;-72
2023/08/27 01:04:54;;;;;;;26.83;9.43;;;14.10;99.90;;;;;;5064584;28;20147;-73
2023/08/27 01:07:31;;;;;;;11.45;8.57;;;14.00;99.90;;;;;;5055771;28;20041;-72
2023/08/27 01:10:11;;;;;;;11.48;8.27;;;14.00;99.90;;;;;;5058748;28;20097;-73
2023/08/27 01:12:50;;;;;;;10.98;8.48;;;14.00;99.90;;;;;;5058052;28;20087;-72
2023/08/27 01:15:17;;;;;;;10.85;8.32;;;14.00;99.90;;;;;;5066860;28;20486;-72
2023/08/27 01:17:46;;;;;;;10.52;8.93;;;14.00;99.90;;;;;;5064600;28;20040;-73
2023/08/27 01:20:12;;;;;;;13.20;8.75;;;14.00;99.90;;;;;;5050875;28;20516;-72
2023/08/27 01:22:38;;;;;;;10.57;7.85;;;14.00;99.90;;;;;;5048676;28;20497;-72
2023/08/27 01:25:06;;;;;;;10.75;7.78;;;14.00;99.90;;;;;;5068211;28;20049;-72
2023/08/27 01:27:44;;;;;;;10.73;7.85;;;13.90;99.90;;;;;;5068134;28;20060;-73
2023/08/27 01:30:17;;;;;;;9.82;7.53;;;13.90;99.90;;;;;;5069529;28;20052;-72
2023/08/27 01:32:51;;;;;;;8.90;7.03;;;13.90;99.90;;;;;;5067647;28;20044;-72
2023/08/27 01:35:17;;;;;;;9.88;7.60;;;13.90;99.90;;;;;;5065579;28;20075;-72
2023/08/27 01:37:44;;;;;;;10.98;7.63;;;13.90;99.90;;;;;;5067142;28;20127;-72
2023/08/27 01:40:10;;;;;;;12.32;7.82;;;13.90;99.90;;;;;;5069530;28;20918;-72
2023/08/27 01:42:36;;;;;;;14.45;8.45;;;13.90;99.90;;;;;;5061112;28;20052;-72
2023/08/27 01:45:06;;;;;;;9.57;7.70;;;13.90;99.90;;;;;;5066388;28;20044;-72
2023/08/27 01:47:32;;;;;;;11.88;7.75;;;13.90;99.90;;;;;;5068356;28;20043;-72
2023/08/27 01:49:58;;;;;;;9.70;7.43;;;13.90;99.90;;;;;;5066961;28;20583;-71
2023/08/27 01:52:24;;;;;;;11.35;7.10;;;13.80;99.90;;;;;;5067408;28;20462;-72
2023/08/27 01:54:49;;;;;;;11.98;7.50;;;13.80;99.90;;;;;;5067084;28;20048;-72
2023/08/27 01:57:15;;;;;;;8.60;7.22;;;13.90;99.90;;;;;;5050813;28;20045;-72
2023/08/27 01:59:41;;;;;;;9.13;7.40;;;13.90;99.90;;;;;;5068774;28;20055;-72
2023/08/27 02:02:07;;;;;;;11.02;7.25;;;13.80;99.90;;;;;;5066745;28;20040;-73
2023/08/27 02:04:33;;;;;;;11.40;7.50;;;13.80;99.90;;;;;;5063234;28;20076;-73
2023/08/27 02:06:58;;;;;;;9.55;7.53;;;13.80;99.90;;;;;;5049510;28;20047;-73
2023/08/27 02:09:24;;;;;;;8.80;6.75;;;13.80;99.90;;;;;;5066390;28;20045;-73
2023/08/27 02:11:50;;;;;;;10.93;8.05;;;13.80;99.90;;;;;;5066440;28;20044;-74
2023/08/27 02:14:16;;;;;;;9.07;6.85;;;13.80;99.90;;;;;;5067116;28;20093;-73
2023/08/27 02:16:41;;;;;;;9.35;6.82;;;13.80;99.90;;;;;;5066414;28;20515;-73
2023/08/27 02:19:07;;;;;;;8.60;7.10;;;13.80;99.90;;;;;;5063912;28;20104;-73
2023/08/27 02:21:33;;;;;;;10.48;6.57;;;13.80;99.90;;;;;;5068304;28;20498;-73
2023/08/27 02:24:00;;;;;;;8.98;7.18;;;13.80;99.90;;;;;;5067302;28;20040;-74
2023/08/27 02:26:26;;;;;;;8.68;7.03;;;13.80;99.90;;;;;;5066632;28;20048;-73
2023/08/27 02:28:52;;;;;;;10.05;7.15;;;13.80;99.90;;;;;;5066831;28;20048;-73
2023/08/27 02:31:18;;;;;;;8.68;6.95;;;13.80;99.90;;;;;;5067893;28;20063;-73
2023/08/27 02:33:44;;;;;;;8.55;6.25;;;13.80;99.90;;;;;;5046765;28;20408;-73
2023/08/27 02:36:10;;;;;;;10.98;7.10;;;13.80;99.90;;;;;;5064651;28;20040;-73
2023/08/27 02:38:36;;;;;;;10.23;7.22;;;13.80;99.90;;;;;;5064711;28;20052;-73
2023/08/27 02:41:01;;;;;;;9.07;6.32;;;13.60;99.90;;;;;;5058523;28;20047;-73
2023/08/27 02:43:28;;;;;;;10.50;6.53;;;13.70;99.90;;;;;;5065618;28;20041;-67
2023/08/27 02:45:53;;;;;;;10.38;7.13;;;13.70;99.90;;;;;;5066976;28;20045;-68
2023/08/27 02:48:19;;;;;;;9.15;6.78;;;13.70;99.90;;;;;;5062403;28;20067;-68
2023/08/27 02:50:45;;;;;;;10.02;6.07;;;13.70;99.90;;;;;;5045401;28;20055;-68
2023/08/27 02:53:11;;;;;;;8.27;6.85;;;13.70;99.90;;;;;;5065969;28;20068;-67
2023/08/27 02:55:36;;;;;;;10.60;6.82;;;13.70;99.90;;;;;;5055865;28;20045;-67
2023/08/27 02:58:02;;;;;;;12.10;7.85;;;13.60;99.90;;;;;;5055956;28;20211;-67
2023/08/27 03:00:29;;;;;;;9.95;7.65;;;13.60;99.90;;;;;;5055554;28;20043;-68
2023/08/27 03:02:55;;;;;;;12.13;7.82;;;13.60;99.90;;;;;;5064352;28;20054;-67
2023/08/27 03:05:21;;;;;;;10.13;7.53;;;13.60;99.90;;;;;;5064291;28;20056;-67
2023/08/27 03:07:46;;;;;;;9.77;7.60;;;13.50;99.90;;;;;;5065305;28;20501;-66
2023/08/27 03:10:14;;;;;;;9.45;7.38;;;13.50;99.90;;;;;;5058880;28;20098;-67
2023/08/27 03:12:40;;;;;;;9.90;7.68;;;13.50;99.90;;;;;;5058837;28;20058;-66
2023/08/27 03:15:06;;;;;;;11.18;8.80;;;13.50;99.90;;;;;;5061168;28;20051;-67
2023/08/27 03:17:31;;;;;;;11.27;8.10;;;13.50;99.90;;;;;;5066835;28;20504;-66
2023/08/27 03:19:57;;;;;;;10.10;7.72;;;13.40;99.90;;;;;;5065642;28;20045;-67
2023/08/27 03:22:23;;;;;;;11.30;7.82;;;13.40;99.90;;;;;;5065755;28;20048;-66
2023/08/27 03:24:48;;;;;;;10.32;8.45;;;13.40;99.90;;;;;;5065008;28;20122;-66
2023/08/27 03:27:14;;;;;;;12.70;8.52;;;13.40;99.90;;;;;;5064760;28;20083;-66
2023/08/27 03:29:40;;;;;;;13.02;8.88;;;13.40;99.90;;;;;;5067080;28;20047;-66
2023/08/27 03:32:06;;;;;;;11.98;8.77;;;13.40;99.90;;;;;;5064778;28;20044;-66
2023/08/27 03:34:32;;;;;;;13.57;9.38;;;13.40;99.90;;;;;;5062091;28;20098;-67
2023/08/27 03:36:58;;;;;;;12.30;8.68;;;13.30;99.90;;;;;;5064801;28;20040;-66
2023/08/27 03:39:24;;;;;;;11.43;8.52;;;13.40;99.90;;;;;;5065594;28;20037;-66
2023/08/27 03:41:50;;;;;;;10.40;8.57;;;13.40;99.90;;;;;;5065478;28;20497;-66
2023/08/27 03:44:16;;;;;;;12.05;9.27;;;13.40;99.90;;;;;;5047887;28;20114;-66
2023/08/27 03:46:42;;;;;;;12.40;8.65;;;13.40;99.90;;;;;;5064521;28;20068;-66
2023/08/27 03:49:07;;;;;;;12.93;9.23;;;13.40;99.90;;;;;;5056929;28;20064;-67
2023/08/27 03:51:33;;;;;;;11.07;8.35;;;13.40;99.90;;;;;;5064330;28;20383;-66
2023/08/27 03:54:00;;;;;;;13.15;8.95;;;13.40;99.90;;;;;;5062468;28;20045;-66
2023/08/27 03:56:26;;;;;;;11.13;9.00;;;13.40;99.90;;;;;;5062360;28;20390;-66
2023/08/27 03:58:52;;;;;;;14.00;9.57;;;13.40;99.90;;;;;;5058504;28;20050;-66
2023/08/27 04:01:18;;;;;;;12.27;8.85;;;13.40;99.90;;;;;;5043851;28;20040;-67
2023/08/27 04:03:43;;;;;;;13.98;9.75;;;13.40;99.90;;;;;;5045780;28;20064;-67
2023/08/27 04:06:12;;;;;;;13.27;9.10;;;13.40;99.90;;;;;;5062621;28;20052;-67
2023/08/27 04:08:38;;;;;;;12.05;8.65;;;13.40;99.90;;;;;;5059837;28;20052;-66
2023/08/27 04:11:04;;;;;;;12.70;9.18;;;13.40;99.90;;;;;;5044362;28;20029;-67
2023/08/27 04:13:30;;;;;;;10.63;8.32;;;13.40;99.90;;;;;;5060279;28;20623;-67
2023/08/27 04:16:05;;;;;;;14.98;9.68;;;13.40;99.90;;;;;;5061881;28;20615;-67
2023/08/27 04:18:32;;;;;;;12.95;9.50;;;13.40;99.90;;;;;;5056838;28;20075;-67
2023/08/27 04:20:58;;;;;;;12.13;9.30;;;13.40;99.90;;;;;;5057859;28;20221;-66
2023/08/27 04:23:23;;;;;;;13.82;8.63;;;13.40;99.90;;;;;;5060366;28;20500;-66
2023/08/27 04:25:49;;;;;;;11.65;8.60;;;13.40;99.90;;;;;;5062641;28;20149;-66
2023/08/27 04:28:15;;;;;;;13.60;9.32;;;13.40;99.90;;;;;;5065592;28;20052;-66
2023/08/27 04:30:44;;;;;;;11.65;9.35;;;13.40;99.90;;;;;;5056281;28;20105;-66
2023/08/27 04:33:10;;;;;;;11.65;9.23;;;13.40;99.90;;;;;;5062688;28;20036;-66
2023/08/27 04:35:36;;;;;;;12.57;10.40;;;13.40;99.90;;;;;;5062771;28;20040;-66
2023/08/27 04:38:03;;;;;;;14.43;9.25;;;13.40;99.90;;;;;;5063511;28;20036;-67
2023/08/27 04:40:29;;;;;;;13.50;9.48;;;13.40;99.90;;;;;;5065363;28;20045;-66
2023/08/27 04:42:57;;;;;;;11.18;8.10;;;13.40;99.90;;;;;;5062723;28;20047;-66
2023/08/27 04:45:22;;;;;;;11.60;9.15;;;13.40;99.90;;;;;;5065977;28;20572;-66
2023/08/27 04:47:48;;;;;;;10.88;8.23;;;13.50;99.90;;;;;;5064258;28;20210;-66
2023/08/27 04:50:14;;;;;;;11.25;8.48;;;13.50;99.90;;;;;;5063733;28;20123;-66
2023/08/27 04:52:40;;;;;;;12.68;8.40;;;13.40;99.90;;;;;;5047678;28;20053;-66
2023/08/27 04:55:06;;;;;;;12.75;8.23;;;13.40;99.90;;;;;;5067223;28;20041;-66
2023/08/27 04:57:37;;;;;;;11.68;8.63;;;13.40;99.90;;;;;;5067656;28;20033;-66
2023/08/27 05:00:08;;;;;;;12.10;8.27;;;13.40;99.90;;;;;;5068106;28;20238;-66
2023/08/27 05:02:34;;;;;;;16.77;9.43;;;13.40;99.90;;;;;;5062574;28;20105;-66
2023/08/27 05:05:00;;;;;;;12.93;9.32;;;13.40;99.90;;;;;;5068272;28;20048;-66
2023/08/27 05:07:26;;;;;;;12.07;9.48;;;13.50;99.90;;;;;;5051552;28;20052;-66
2023/08/27 05:09:52;;;;;;;12.07;8.75;;;13.40;99.90;;;;;;5067312;28;20051;-66
2023/08/27 05:12:17;;;;;;;11.70;8.68;;;13.40;99.90;;;;;;5050641;28;20036;-66
2023/08/27 05:14:43;;;;;;;11.85;8.43;;;13.40;99.90;;;;;;5068556;28;20040;-72
2023/08/27 05:17:10;;;;;;;15.40;9.23;;;13.40;99.90;;;;;;5064503;28;20382;-72
2023/08/27 05:19:36;;;;;;;10.23;8.15;;;13.40;99.90;;;;;;5046136;28;20142;-75
2023/08/27 05:22:02;;;;;;;10.52;8.68;;;13.50;99.90;;;;;;5065350;28;20044;-73
2023/08/27 05:24:27;;;;;;;17.67;9.23;;;13.50;99.90;;;;;;5065227;28;20384;-73
2023/08/27 05:26:53;;;;;;;12.07;8.57;;;13.50;99.90;;;;;;5066866;28;20071;-73
2023/08/27 05:29:19;;;;;;;11.48;8.98;;;13.60;99.90;;;;;;5066353;28;20059;-73
2023/08/27 05:31:45;;;;;;;12.43;9.05;;;13.80;99.90;;;;;;5067213;28;20049;-73
2023/08/27 05:34:10;;;;;;;13.45;8.38;;;14.10;99.90;;;;;;5050270;28;20043;-74
2023/08/27 05:36:36;;;;;;;11.18;7.97;;;14.20;99.90;;;;;;5064910;28;20048;-73
2023/08/27 05:39:03;;;;;;;12.73;7.90;;;14.20;99.90;;;;;;5060130;28;20042;-66
2023/08/27 05:41:28;;;;;;;9.98;7.45;;;14.20;99.90;;;;;;5063283;28;20028;-67
2023/08/27 05:43:54;;;;;;;11.45;7.32;;;14.20;99.90;;;;;;5047462;28;20139;-67
2023/08/27 05:46:20;;;;;;;13.63;7.55;;;14.20;99.90;;;;;;5066407;28;20044;-67
2023/08/27 05:48:45;;;;;;;13.30;6.97;;;14.10;99.90;;;;;;5048271;28;20051;-67
2023/08/27 05:51:11;;;;;;;10.18;7.43;;;14.10;99.90;;;;;;5068923;28;20049;-67
2023/08/27 05:53:38;;;;;;;11.88;7.82;;;14.10;99.90;;;;;;5057124;28;20152;-66
2023/08/27 05:56:04;;;;;;;8.98;7.40;;;14.10;99.90;;;;;;5063184;28;20044;-67
2023/08/27 05:58:29;;;;;;;11.75;7.30;;;14.00;99.90;;;;;;5063913;28;20101;-67
2023/08/27 06:00:56;;;;;;;14.98;7.32;;;14.00;99.90;;;;;;5062019;28;20040;-67
2023/08/27 06:03:22;;;;;;;9.73;7.18;;;14.00;99.90;;;;;;5064138;28;20595;-67
2023/08/27 06:05:48;;;;;;;9.45;7.70;;;14.00;99.90;;;;;;5065392;28;20634;-67
2023/08/27 06:08:14;;;;;;;10.18;7.88;;;14.00;99.90;;;;;;5064559;28;20635;-67
2023/08/27 06:10:40;;;;;;;9.90;7.07;;;14.00;99.90;;;;;;5068992;28;20131;-67
2023/08/27 06:13:07;;;;;;;12.55;8.02;;;14.00;99.90;;;;;;5065462;28;20123;-66
2023/08/27 06:15:34;;;;;;;14.52;8.10;;;14.00;99.90;;;;;;5060990;28;20048;-68
2023/08/27 06:18:03;;;;;;;11.32;8.48;;;14.00;99.90;;;;;;5047310;28;20832;-66
2023/08/27 06:20:29;;;;;;;11.85;7.95;;;14.00;99.90;;;;;;5042724;28;20036;-66
2023/08/27 06:22:55;;;;;;;12.02;8.10;;;14.00;99.90;;;;;;5049738;28;20055;-66
2023/08/27 06:25:22;;;;;;;11.70;8.23;;;14.10;99.90;;;;;;5052921;28;20045;-67
2023/08/27 06:27:48;;;;;;;13.38;8.25;;;14.00;99.90;;;;;;5049756;28;20087;-69
2023/08/27 06:30:14;;;;;;;9.60;7.90;;;14.10;99.90;;;;;;5052269;28;20485;-66
2023/08/27 06:32:40;;;;;;;9.80;7.70;;;14.10;99.90;;;;;;5048289;28;20813;-66
2023/08/27 06:35:06;;;;;;;11.93;8.50;;;14.10;99.90;;;;;;5033628;28;20044;-67
2023/08/27 06:37:32;;;;;;;12.63;8.13;;;14.10;99.90;;;;;;5035393;28;20071;-66
2023/08/27 06:39:58;;;;;;;13.30;8.02;;;14.10;99.90;;;;;;5053023;28;20497;-67
2023/08/27 06:42:23;;;;;;;13.05;7.97;;;14.10;99.90;;;;;;5053755;28;20041;-67
2023/08/27 06:44:49;;;;;;;13.35;8.32;;;14.20;99.90;;;;;;5055370;28;20117;-66
2023/08/27 06:47:15;;;;;;;11.70;8.05;;;14.20;99.90;;;;;;5051732;28;20045;-66
2023/08/27 06:49:41;;;;;;;12.73;7.93;;;14.20;99.90;;;;;;5037810;28;20072;-67
2023/08/27 06:52:06;;;;;;;12.30;7.38;;;14.20;99.90;;;;;;5052838;28;20041;-66
2023/08/27 06:54:32;;;;;;;14.15;7.80;;;14.20;99.90;;;;;;5050729;28;20873;-67
2023/08/27 06:56:58;;;;;;;12.70;7.85;;;14.20;99.90;;;;;;5034114;28;20064;-67
2023/08/27 06:59:24;;;;;;;15.98;8.27;;;14.20;99.90;;;;;;5055232;28;20529;-67
2023/08/27 07:01:50;;;;;;;12.98;8.13;;;14.30;99.90;;;;;;5065649;28;20044;-73
2023/08/27 07:04:16;;;;;;;13.23;7.82;;;14.30;99.90;;;;;;5038966;28;20041;-72
2023/08/27 07:06:42;;;;;;;13.63;7.38;;;14.30;99.90;;;;;;5050597;28;20060;-73
2023/08/27 07:09:08;;;;;;;10.57;7.07;;;14.30;99.90;;;;;;5055194;28;20041;-73
2023/08/27 07:11:34;;;;;;;10.55;6.78;;;14.30;99.90;;;;;;5053252;28;20117;-73
2023/08/27 07:14:00;;;;;;;11.07;6.78;;;14.30;99.90;;;;;;5048820;28;20094;-73
2023/08/27 07:16:28;;;;;;;10.55;7.22;;;14.30;99.90;;;;;;5049532;28;20790;-72
2023/08/27 07:18:54;;;;;;;11.05;6.30;;;14.40;99.90;;;;;;5036614;28;20544;-74
2023/08/27 07:21:20;;;;;;;10.50;6.28;;;14.40;99.90;;;;;;5056170;28;20078;-73
2023/08/27 07:23:46;;;;;;;9.82;6.00;;;14.40;99.90;;;;;;5063752;28;20770;-73
2023/08/27 07:26:12;;;;;;;13.68;6.70;;;14.40;99.90;;;;;;5058541;28;20135;-73
2023/08/27 07:28:38;;;;;;;10.50;6.40;;;14.40;99.90;;;;;;5043371;28;20087;-73
2023/08/27 07:31:04;;;;;;;9.20;5.35;;;14.40;99.90;;;;;;5064680;28;20068;-73
2023/08/27 07:33:30;;;;;;;11.38;6.10;;;14.50;99.90;;;;;;5061500;28;20176;-74
2023/08/27 07:35:56;;;;;;;11.50;5.55;;;14.50;99.90;;;;;;5040449;28;20074;-72
2023/08/27 07:38:26;;;;;;;8.95;5.57;;;14.60;99.90;;;;;;5039719;28;20043;-73
2023/08/27 07:40:52;;;;;;;9.07;5.60;;;14.60;99.90;;;;;;5060698;28;20049;-72
2023/08/27 07:43:18;;;;;;;10.35;5.65;;;14.70;99.90;;;;;;5057820;28;20194;-72
2023/08/27 07:45:44;;;;;;;11.30;5.10;;;14.70;99.90;;;;;;5058097;28;21436;-73
2023/08/27 07:48:10;;;;;;;9.70;4.93;;;14.80;99.90;;;;;;5065531;28;20148;-73
2023/08/27 07:50:37;;;;;;;9.52;5.20;;;14.80;99.90;;;;;;5040982;28;20048;-72
2023/08/27 07:53:03;;;;;;;9.05;5.20;;;14.80;99.90;;;;;;5059166;28;20040;-73
2023/08/27 07:55:31;;;;;;;9.48;5.50;;;14.80;99.90;;;;;;5057096;28;20090;-73
2023/08/27 07:57:58;;;;;;;9.90;5.30;;;14.80;99.90;;;;;;5057385;28;20036;-72
2023/08/27 08:00:24;;;;;;;10.82;5.38;;;14.90;99.90;;;;;;5052115;28;20056;-74
2023/08/27 08:02:53;;;;;;;10.10;5.75;;;15.00;99.90;;;;;;5057948;28;20044;-74
2023/08/27 08:05:19;;;;;;;9.00;5.45;;;15.00;99.90;;;;;;5057462;28;20059;-72
2023/08/27 08:07:44;;;;;;;11.90;5.15;;;15.10;99.90;;;;;;5058743;28;20048;-74
2023/08/27 08:10:10;;;;;;;9.70;4.95;;;15.20;99.90;;;;;;5063510;28;20066;-74
2023/08/27 08:12:36;;;;;;;8.80;4.22;;;15.30;99.90;;;;;;5064388;28;20123;-74
2023/08/27 08:15:02;;;;;;;8.07;4.13;;;15.50;99.90;;;;;;5060177;28;20044;-74
2023/08/27 08:17:29;;;;;;;9.48;4.10;;;15.60;99.90;;;;;;5043180;28;20655;-72
2023/08/27 08:19:54;;;;;;;8.73;4.53;;;15.70;99.90;;;;;;5045448;28;20555;-73
2023/08/27 08:22:20;;;;;;;8.23;4.07;;;15.90;99.90;;;;;;5058564;28;20044;-73
2023/08/27 08:24:47;;;;;;;9.45;3.97;;;16.00;99.90;;;;;;5062656;28;20056;-73
2023/08/27 08:27:15;;;;;;;8.70;3.50;;;16.10;99.90;;;;;;5063155;28;20048;-74
2023/08/27 08:29:41;;;;;;;7.13;3.42;;;16.20;99.90;;;;;;5064864;28;20120;-73
2023/08/27 08:32:07;;;;;;;6.80;3.22;;;16.30;99.90;;;;;;5064331;28;20115;-74
2023/08/27 08:34:33;;;;;;;6.85;3.40;;;16.40;99.90;;;;;;5044296;28;20053;-73
2023/08/27 08:37:00;;;;;;;8.65;3.22;;;16.40;99.90;;;;;;5057273;28;20358;-74
2023/08/27 08:39:26;;;;;;;7.97;2.97;;;16.40;99.90;;;;;;5062013;28;20041;-74
2023/08/27 08:42:13;;;;;;;6.90;2.80;;;16.50;99.90;;;;;;5063399;28;20106;-73
2023/08/27 08:44:43;;;;;;;6.30;2.95;;;16.60;99.90;;;;;;5061788;28;20074;-73
2023/08/27 08:47:11;;;;;;;5.40;2.60;;;16.70;99.90;;;;;;5064830;28;20080;-74
2023/08/27 08:49:41;;;;;;;8.32;2.75;;;16.70;99.90;;;;;;5046006;28;20056;-74
2023/08/27 08:52:09;;;;;;;6.53;2.63;;;16.80;99.90;;;;;;5046692;28;20059;-73
2023/08/27 08:54:41;;;;;;;8.27;2.65;;;16.80;99.90;;;;;;5061403;28;20044;-73
2023/08/27 08:57:11;;;;;;;4.88;2.10;;;16.80;99.90;;;;;;5061215;28;20039;-73
2023/08/27 08:59:38;;;;;;;5.95;2.30;;;16.90;99.90;;;;;;5059751;28;20053;-74
2023/08/27 09:02:04;;;;;;;5.43;2.10;;;16.90;99.90;;;;;;5053923;28;20044;-73
2023/08/27 09:04:31;;;;;;;6.43;2.25;;;16.90;99.90;;;;;;5071811;28;20057;-73
2023/08/27 09:06:58;;;;;;;7.07;2.20;;;17.00;99.90;;;;;;5063796;28;20056;-74
2023/08/27 09:09:24;;;;;;;4.93;1.95;;;17.10;99.90;;;;;;5058159;28;20037;-74
2023/08/27 09:11:51;;;;;;;4.32;1.98;;;17.10;99.90;;;;;;5059822;28;20063;-75
2023/08/27 09:14:19;;;;;;;5.80;2.05;;;17.30;99.90;;;;;;5058846;28;20130;-74
2023/08/27 09:16:45;;;;;;;4.53;1.77;;;17.30;99.90;;;;;;5047305;28;20052;-74
2023/08/27 09:19:11;;;;;;;6.20;1.73;;;17.30;99.90;;;;;;5058713;28;20055;-74
2023/08/27 09:21:37;;;;;;;5.25;1.45;;;17.30;99.90;;;;;;5067199;28;20059;-67
2023/08/27 09:24:03;;;;;;;4.13;1.77;;;17.40;99.90;;;;;;5064299;28;20189;-67
2023/08/27 09:26:29;;;;;;;4.82;1.80;;;17.50;99.90;;;;;;5058456;28;20036;-67
2023/08/27 09:28:55;;;;;;;4.00;1.55;;;17.70;99.90;;;;;;5063215;28;20044;-68
2023/08/27 09:31:55;;;;;;;4.13;1.40;;;17.80;99.90;;;;;;5061530;28;20044;-68
2023/08/27 09:34:20;;;;;;;4.38;2.03;;;17.90;99.90;;;;;;5045159;28;20061;-68
2023/08/27 09:36:46;;;;;;;5.50;1.70;;;18.00;99.90;;;;;;5068759;28;20041;-67
2023/08/27 09:39:15;;;;;;;4.47;1.55;;;18.10;99.90;;;;;;5054954;28;20811;-67
2023/08/27 09:41:44;;;;;;;4.85;1.42;;;18.10;99.90;;;;;;5066998;28;20048;-67
2023/08/27 09:44:10;;;;;;;2.88;1.52;;;18.20;99.90;;;;;;5044843;28;20469;-67
2023/08/27 09:46:42;;;;;;;3.85;1.50;;;18.20;99.90;;;;;;5047406;28;20048;-68
2023/08/27 09:49:08;;;;;;;3.45;1.58;;;18.30;99.90;;;;;;5047380;28;20044;-68
2023/08/27 09:51:36;;;;;;;5.85;1.73;;;18.20;99.90;;;;;;5045166;28;20079;-68
2023/08/27 09:54:13;;;;;;;4.28;1.60;;;18.20;99.90;;;;;;5062967;28;20051;-68
2023/08/27 09:56:42;;;;;;;3.83;1.30;;;18.20;99.90;;;;;;5041507;28;20047;-75
2023/08/27 09:59:08;;;;;;;3.33;1.48;;;18.20;99.90;;;;;;5061527;28;20087;-74
2023/08/27 10:01:46;;;;;;;3.30;1.40;;;18.20;99.90;;;;;;5056015;28;20063;-75
2023/08/27 10:04:12;;;;;;;4.57;1.55;;;18.30;99.90;;;;;;5041509;28;20052;-73
2023/08/27 10:06:38;;;;;;;5.05;1.85;;;18.30;99.90;;;;;;5061536;28;20048;-75
2023/08/27 10:09:04;;;;;;;5.32;1.40;;;18.40;99.90;;;;;;5064011;28;20578;-75
2023/08/27 10:11:35;;;;;;;5.85;1.90;;;18.50;99.90;;;;;;5063849;28;20051;-75
2023/08/27 10:14:03;;;;;;;5.78;1.83;;;18.50;99.90;;;;;;5067625;28;20135;-73
2023/08/27 10:16:30;;;;;;;8.43;2.80;;;18.60;99.90;;;;;;5066043;28;20075;-75
2023/08/27 10:18:57;;;;;;;4.78;2.05;;;18.50;99.90;;;;;;5061701;28;20046;-75
2023/08/27 10:21:23;;;;;;;6.85;1.98;;;18.50;99.90;;;;;;5042445;28;20040;-76
2023/08/27 10:23:49;;;;;;;4.38;1.80;;;18.40;99.90;;;;;;5050836;28;20429;-76
2023/08/27 10:26:15;;;;;;;3.53;1.70;;;18.40;99.90;;;;;;5053572;28;20069;-75
2023/08/27 10:28:41;;;;;;;4.25;1.85;;;18.30;99.90;;;;;;5044219;28;20409;-75
2023/08/27 10:31:07;;;;;;;4.72;1.70;;;18.30;99.90;;;;;;5058915;28;20152;-75
2023/08/27 10:33:33;;;;;;;4.88;1.60;;;18.20;99.90;;;;;;5059039;28;20052;-75
2023/08/27 10:36:20;;;;;;;5.47;1.83;;;18.20;99.90;;;;;;5064931;28;20086;-75
2023/08/27 10:38:48;;;;;;;5.40;1.70;;;18.20;99.90;;;;;;5055257;28;20044;-75
2023/08/27 10:41:21;;;;;;;4.13;1.75;;;18.20;99.90;;;;;;5058060;28;20052;-75
2023/08/27 10:43:47;;;;;;;4.65;2.00;;;18.20;99.90;;;;;;5063776;28;20051;-75
2023/08/27 10:46:17;;;;;;;4.43;1.88;;;18.20;99.90;;;;;;5042500;28;20049;-75
2023/08/27 10:48:51;;;;;;;7.28;2.10;;;18.20;99.90;;;;;;5065614;28;20049;-75
2023/08/27 10:51:18;;;;;;;4.80;2.10;;;18.20;99.90;;;;;;5064231;28;20040;-75
2023/08/27 10:53:50;;;;;;;5.43;1.95;;;18.30;99.90;;;;;;5062746;28;20037;-73
2023/08/27 10:56:38;;;;;;;4.43;1.80;;;18.40;99.90;;;;;;5057667;28;20059;-73
2023/08/27 10:59:03;;;;;;;6.68;1.80;;;18.50;99.90;;;;;;5053276;28;20139;-74
2023/08/27 11:01:34;;;;;;;3.75;1.50;;;18.60;99.90;;;;;;5057938;28;20097;-75
2023/08/27 11:04:03;;;;;;;5.05;1.90;;;18.80;99.90;;;;;;5056845;28;20072;-75
2023/08/27 11:06:45;;;;;;;3.45;1.60;;;18.80;99.90;;;;;;5039978;28;20083;-75
2023/08/27 11:09:15;;;;;;;5.47;1.45;;;18.90;99.90;;;;;;5060400;28;20037;-75
2023/08/27 11:12:04;;;;;;;3.75;1.73;;;19.00;99.90;;;;;;5061923;28;20574;-74
2023/08/27 11:14:37;;;;;;;4.70;1.70;;;19.10;99.90;;;;;;5061337;28;20106;-74
2023/08/27 11:17:04;;;;;;;5.43;2.00;;;19.20;99.90;;;;;;5044376;28;20052;-75
2023/08/27 11:19:35;;;;;;;6.45;1.70;;;19.20;99.90;;;;;;5041527;28;20366;-75
2023/08/27 11:22:11;;;;;;;3.92;1.75;;;19.30;99.90;;;;;;5058685;28;20033;-74
2023/08/27 11:24:43;;;;;;;5.93;1.67;;;19.30;99.90;;;;;;5051866;28;20141;-75
2023/08/27 11:27:10;;;;;;;3.47;1.60;;;19.40;99.90;;;;;;5052565;28;20037;-73
2023/08/27 11:29:40;;;;;;;4.38;1.90;;;19.40;99.90;;;;;;5038907;28;20056;-75
2023/08/27 11:32:10;;;;;;;3.13;1.43;;;19.50;99.90;;;;;;5061314;28;20040;-73
2023/08/27 11:34:38;;;;;;;3.67;1.15;;;19.50;99.90;;;;;;5040508;28;20087;-74
2023/08/27 11:37:04;;;;;;;6.07;1.75;;;19.50;99.90;;;;;;5060594;28;20265;-73
2023/08/27 11:39:30;;;;;;;4.22;1.40;;;19.60;99.90;;;;;;5062858;28;20132;-74
2023/08/27 11:41:56;;;;;;;4.55;1.05;;;19.70;99.90;;;;;;5064294;28;20627;-73
2023/08/27 11:44:23;;;;;;;3.17;1.30;;;19.70;99.90;;;;;;5066278;28;20119;-74
2023/08/27 11:46:51;;;;;;;2.92;0.95;;;19.80;99.90;;;;;;5059183;28;20045;-74
2023/08/27 11:49:31;;;;;;;8.38;1.30;;;19.70;99.90;;;;;;5041851;28;21739;-76
2023/08/27 11:51:57;;;;;;;3.28;1.00;;;19.60;99.90;;;;;;5064446;28;20044;-74
2023/08/27 11:54:28;;;;;;;3.90;0.90;;;19.30;99.90;;;;;;5064603;28;20413;-74
2023/08/27 11:56:55;;;;;;;2.63;1.00;;;19.30;99.90;;;;;;5065561;28;20097;-73
2023/08/27 11:59:22;;;;;;;3.53;1.10;;;19.10;99.90;;;;;;5050609;28;20032;-73
2023/08/27 12:01:48;;;;;;;2.03;0.70;;;18.90;99.90;;;;;;5064147;28;20040;-73
2023/08/27 12:04:14;;;;;;;1.20;0.60;;;18.80;99.90;;;;;;5063331;28;20036;-73
2023/08/27 12:07:00;;;;;;;2.22;0.77;;;18.60;99.90;;;;;;5063110;28;20056;-73
2023/08/27 12:09:33;;;;;;;2.08;0.52;;;18.50;99.90;;;;;;5043131;28;20053;-73
2023/08/27 12:12:04;;;;;;;2.65;0.75;;;18.30;99.90;;;;;;5058710;28;20056;-72
2023/08/27 12:14:30;;;;;;;4.10;0.95;;;18.20;99.90;;;;;;5063014;28;20501;-73
2023/08/27 12:17:10;;;;;;;4.30;0.95;;;18.10;99.90;;;;;;5040612;28;20853;-73
2023/08/27 12:19:38;;;;;;;7.10;1.05;;;17.90;99.90;;;;;;5075995;28;20052;-72
2023/08/27 12:22:04;;;;;;;5.57;0.85;;;17.80;99.90;;;;;;5057187;28;20044;-73
2023/08/27 12:24:40;;;;;;;4.38;0.80;;;17.70;99.90;;;;;;5059499;28;20401;-73
2023/08/27 12:27:12;;;;;;;3.97;0.75;;;17.60;99.90;;;;;;5063632;28;20110;-72
2023/08/27 12:29:45;;;;;;;3.33;0.80;;;17.50;99.90;;;;;;5062736;28;20590;-73
2023/08/27 12:32:16;;;;;;;3.15;0.80;;;17.50;99.90;;;;;;5060542;28;20143;-73
2023/08/27 12:34:48;;;;;;;2.17;0.67;;;17.40;99.90;;;;;;5063897;28;20055;-72
2023/08/27 12:37:17;;;;;;;1.67;0.80;;;17.40;99.90;;;;;;5064849;28;20043;-73
2023/08/27 12:39:44;;;;;;;5.22;0.85;;;17.40;99.90;;;;;;5043982;28;20048;-72
2023/08/27 12:42:17;;;;;;;3.60;0.73;;;17.30;99.90;;;;;;5054712;28;20048;-72